Time;durP1;ratioP1;P1;durP2;ratioP2;P2;SDS_P1;SDS_P2;PMS_P1;PMS_P2;Temp;Humidity;BMP_temperature;BMP_pressure;BME280_temperature;BME280_humidity;BME280_pressure;Samples;Min_cycle;Max_cycle;Signal;HPM_P1;HPM_P2
2024/01/21 00:02:21;;;;;;;12.52;7.05;;;;;;;;;;4976571;28;25116;-79
2024/01/21 00:04:48;;;;;;;16.15;7.65;;;;;;;;;;4962416;28;25079;-80
2024/01/21 00:07:14;;;;;;;11.45;7.47;;;;;;;;;;4987948;28;25053;-85
2024/01/21 00:09:41;;;;;;;18.42;7.50;;;;;;;;;;4967209;28;25064;-81
2024/01/21 00:12:07;;;;;;;12.02;7.65;;;;;;;;;;4978965;28;25046;-84
2024/01/21 00:14:35;;;;;;;11.38;6.60;;;;;;;;;;4956700;28;25074;-82
2024/01/21 00:17:02;;;;;;;11.40;6.97;;;;;;;;;;4962435;28;25069;-84
2024/01/21 00:19:28;;;;;;;12.45;7.47;;;;;;;;;;4987720;28;25072;-86
2024/01/21 00:21:54;;;;;;;12.70;6.78;;;;;;;;;;4959860;28;25045;-82
2024/01/21 00:24:19;;;;;;;15.13;7.22;;;;;;;;;;4976045;28;25068;-83
2024/01/21 00:26:46;;;;;;;11.15;5.97;;;;;;;;;;4979620;28;25093;-83
2024/01/21 00:29:12;;;;;;;14.48;6.47;;;;;;;;;;4984135;28;25052;-84
2024/01/21 00:31:38;;;;;;;9.05;6.10;;;;;;;;;;4982050;28;25077;-83
2024/01/21 00:34:04;;;;;;;10.65;6.78;;;;;;;;;;4983651;28;25097;-86
2024/01/21 00:36:30;;;;;;;12.98;6.32;;;;;;;;;;4970061;23;25136;-64
2024/01/21 00:38:55;;;;;;;11.57;6.13;;;;;;;;;;4939453;28;25057;-64
2024/01/21 00:41:21;;;;;;;11.32;6.43;;;;;;;;;;4931705;28;25056;-64
2024/01/21 00:43:47;;;;;;;10.82;5.95;;;;;;;;;;4947040;28;25089;-63
2024/01/21 00:46:13;;;;;;;10.40;6.47;;;;;;;;;;4949132;28;25057;-64
2024/01/21 00:48:40;;;;;;;13.43;6.50;;;;;;;;;;4946412;28;25070;-63
2024/01/21 00:51:06;;;;;;;10.77;6.07;;;;;;;;;;4938850;28;25071;-64
2024/01/21 00:53:32;;;;;;;10.27;5.70;;;;;;;;;;4951450;28;25065;-65
2024/01/21 00:55:58;;;;;;;13.48;6.28;;;;;;;;;;4948102;28;25063;-63
2024/01/21 00:58:24;;;;;;;10.25;5.55;;;;;;;;;;4967806;28;25106;-64
2024/01/21 01:00:50;;;;;;;10.30;5.63;;;;;;;;;;4943069;28;25082;-63
2024/01/21 01:03:16;;;;;;;9.05;5.30;;;;;;;;;;4948338;28;25091;-64
2024/01/21 01:05:42;;;;;;;11.32;5.85;;;;;;;;;;4954660;28;25074;-63
2024/01/21 01:08:08;;;;;;;10.60;5.45;;;;;;;;;;4949050;28;25150;-64
2024/01/21 01:10:34;;;;;;;11.25;5.65;;;;;;;;;;4951838;28;25145;-63
2024/01/21 01:13:00;;;;;;;9.75;6.05;;;;;;;;;;4955386;28;25161;-63
2024/01/21 01:15:26;;;;;;;5.88;4.13;;;;;;;;;;4952480;28;25124;-64
2024/01/21 01:17:52;;;;;;;9.70;6.05;;;;;;;;;;4947422;28;25055;-63
2024/01/21 01:20:18;;;;;;;10.07;6.15;;;;;;;;;;4952284;28;25126;-63
2024/01/21 01:22:44;;;;;;;10.52;5.10;;;;;;;;;;4948227;28;25095;-63
2024/01/21 01:25:10;;;;;;;9.73;5.18;;;;;;;;;;4949328;28;25104;-64
2024/01/21 01:27:36;;;;;;;8.10;4.78;;;;;;;;;;4945725;28;25146;-64
2024/01/21 01:30:02;;;;;;;7.88;4.75;;;;;;;;;;4950281;28;25077;-63
2024/01/21 01:32:28;;;;;;;9.65;5.30;;;;;;;;;;4939160;28;25070;-63
2024/01/21 01:34:55;;;;;;;8.90;5.15;;;;;;;;;;4943931;28;25046;-63
2024/01/21 01:37:21;;;;;;;7.35;5.45;;;;;;;;;;4948625;28;25068;-63
2024/01/21 01:39:47;;;;;;;8.38;5.25;;;;;;;;;;4943818;28;25142;-62
2024/01/21 01:42:13;;;;;;;7.70;4.68;;;;;;;;;;4962096;28;25078;-63
2024/01/21 01:44:40;;;;;;;8.40;4.47;;;;;;;;;;4949997;28;25067;-64
2024/01/21 01:47:07;;;;;;;8.93;5.50;;;;;;;;;;4952987;28;25102;-64
2024/01/21 01:49:33;;;;;;;8.38;5.00;;;;;;;;;;4948866;28;25070;-64
2024/01/21 01:51:59;;;;;;;6.88;4.65;;;;;;;;;;4950427;28;25100;-63
2024/01/21 01:54:29;;;;;;;8.18;4.40;;;;;;;;;;4937058;28;25094;-64
2024/01/21 01:56:55;;;;;;;8.65;4.60;;;;;;;;;;4941517;28;25066;-63
2024/01/21 01:59:22;;;;;;;9.48;4.63;;;;;;;;;;4948251;28;25080;-63
2024/01/21 02:01:49;;;;;;;7.32;4.65;;;;;;;;;;4960123;28;25123;-64
2024/01/21 02:04:15;;;;;;;8.52;4.75;;;;;;;;;;4952746;28;25074;-64
2024/01/21 02:06:41;;;;;;;11.00;5.20;;;;;;;;;;4946906;28;25094;-64
2024/01/21 02:09:08;;;;;;;8.82;4.95;;;;;;;;;;4945321;28;25062;-65
2024/01/21 02:11:34;;;;;;;7.05;4.38;;;;;;;;;;4948557;28;25061;-64
2024/01/21 02:14:00;;;;;;;7.80;4.63;;;;;;;;;;4940277;28;25068;-64
2024/01/21 02:16:26;;;;;;;9.70;4.90;;;;;;;;;;4963454;28;25158;-64
2024/01/21 02:18:53;;;;;;;7.28;4.45;;;;;;;;;;4952208;28;25061;-65
2024/01/21 02:21:19;;;;;;;8.52;4.25;;;;;;;;;;4946463;28;25102;-64
2024/01/21 02:23:45;;;;;;;6.30;4.30;;;;;;;;;;4944175;28;25114;-65
2024/01/21 02:26:11;;;;;;;8.18;5.00;;;;;;;;;;4949301;28;25053;-63
2024/01/21 02:28:37;;;;;;;7.65;4.50;;;;;;;;;;4951386;28;25084;-63
2024/01/21 02:31:03;;;;;;;7.65;5.25;;;;;;;;;;4947292;28;25114;-63
2024/01/21 02:33:29;;;;;;;10.27;4.55;;;;;;;;;;4961543;28;25097;-64
2024/01/21 02:35:55;;;;;;;8.25;5.38;;;;;;;;;;4950868;28;25092;-64
2024/01/21 02:38:21;;;;;;;8.68;5.03;;;;;;;;;;4946541;28;25153;-63
2024/01/21 02:40:47;;;;;;;8.48;5.18;;;;;;;;;;4942476;28;25057;-63
2024/01/21 02:43:13;;;;;;;7.57;4.45;;;;;;;;;;4952210;28;25079;-63
2024/01/21 02:45:38;;;;;;;8.43;4.57;;;;;;;;;;4949478;28;25106;-64
2024/01/21 02:48:05;;;;;;;9.23;4.93;;;;;;;;;;4950648;28;25069;-63
2024/01/21 02:50:31;;;;;;;9.75;5.22;;;;;;;;;;4933950;28;25067;-64
2024/01/21 02:52:57;;;;;;;8.00;5.10;;;;;;;;;;4932568;28;25078;-63
2024/01/21 02:55:23;;;;;;;10.90;4.82;;;;;;;;;;4944315;28;25107;-64
2024/01/21 02:57:49;;;;;;;8.68;5.38;;;;;;;;;;4941741;28;25046;-62
2024/01/21 03:00:15;;;;;;;6.88;4.90;;;;;;;;;;4944970;28;25100;-63
2024/01/21 03:02:41;;;;;;;9.73;4.95;;;;;;;;;;4945081;28;25058;-64
2024/01/21 03:05:07;;;;;;;8.18;4.93;;;;;;;;;;4945642;28;25140;-64
2024/01/21 03:07:33;;;;;;;9.60;5.00;;;;;;;;;;4943622;28;25142;-64
2024/01/21 03:09:59;;;;;;;8.40;5.00;;;;;;;;;;4948936;28;25136;-63
2024/01/21 03:12:25;;;;;;;8.93;4.93;;;;;;;;;;4945391;28;25146;-64
2024/01/21 03:14:51;;;;;;;7.40;4.55;;;;;;;;;;4947372;28;25076;-62
2024/01/21 03:17:17;;;;;;;10.23;5.45;;;;;;;;;;4943983;28;25148;-64
2024/01/21 03:19:42;;;;;;;11.50;5.28;;;;;;;;;;4947410;28;25160;-64
2024/01/21 03:22:08;;;;;;;10.23;5.85;;;;;;;;;;4944558;28;25072;-64
2024/01/21 03:24:34;;;;;;;9.77;5.47;;;;;;;;;;4938624;28;25078;-64
2024/01/21 03:27:00;;;;;;;9.02;5.20;;;;;;;;;;4948024;28;25101;-64
2024/01/21 03:29:26;;;;;;;11.25;5.07;;;;;;;;;;4943904;28;25135;-64
2024/01/21 03:31:52;;;;;;;11.30;5.68;;;;;;;;;;4949638;28;25075;-63
2024/01/21 03:34:18;;;;;;;9.70;5.22;;;;;;;;;;4947416;28;25123;-62
2024/01/21 03:36:44;;;;;;;7.93;5.32;;;;;;;;;;4952776;28;25154;-64
2024/01/21 03:39:10;;;;;;;10.52;5.72;;;;;;;;;;4955564;28;25082;-63
2024/01/21 03:41:36;;;;;;;8.95;5.50;;;;;;;;;;4947489;28;25073;-65
2024/01/21 03:44:02;;;;;;;10.43;5.80;;;;;;;;;;4951754;28;25061;-64
2024/01/21 03:46:28;;;;;;;11.05;5.35;;;;;;;;;;4944472;28;25061;-64
2024/01/21 03:48:54;;;;;;;10.05;5.78;;;;;;;;;;4948245;28;25142;-63
2024/01/21 03:51:20;;;;;;;9.63;5.75;;;;;;;;;;4950352;28;25146;-64
2024/01/21 03:53:46;;;;;;;11.65;6.72;;;;;;;;;;4950070;28;25058;-64
2024/01/21 03:56:18;;;;;;;9.93;5.65;;;;;;;;;;4949504;28;25068;-65
2024/01/21 03:58:44;;;;;;;9.57;5.35;;;;;;;;;;4958897;28;25074;-62
2024/01/21 04:01:10;;;;;;;9.70;5.88;;;;;;;;;;4948779;28;25140;-63
2024/01/21 04:03:36;;;;;;;9.30;6.18;;;;;;;;;;4945223;28;25075;-64
2024/01/21 04:06:02;;;;;;;11.25;6.05;;;;;;;;;;4950074;28;25113;-64
2024/01/21 04:08:28;;;;;;;11.07;6.10;;;;;;;;;;4951438;28;25064;-63
2024/01/21 04:10:54;;;;;;;13.48;5.47;;;;;;;;;;4951090;28;25077;-62
2024/01/21 04:13:21;;;;;;;10.73;5.72;;;;;;;;;;4950563;28;25068;-64
2024/01/21 04:15:47;;;;;;;11.25;6.03;;;;;;;;;;4952480;28;25095;-63
2024/01/21 04:18:13;;;;;;;11.43;6.13;;;;;;;;;;4946420;28;25072;-63
2024/01/21 04:20:39;;;;;;;9.13;5.75;;;;;;;;;;4944436;28;25067;-63
2024/01/21 04:23:05;;;;;;;10.38;5.90;;;;;;;;;;4942285;28;25050;-62
2024/01/21 04:25:31;;;;;;;10.57;6.57;;;;;;;;;;4946386;28;25059;-63
2024/01/21 04:27:57;;;;;;;10.73;5.95;;;;;;;;;;4951556;28;25096;-63
2024/01/21 04:30:23;;;;;;;11.38;6.05;;;;;;;;;;4950712;28;25113;-62
2024/01/21 04:32:49;;;;;;;10.18;5.90;;;;;;;;;;4962497;28;25142;-63
2024/01/21 04:35:14;;;;;;;13.13;6.38;;;;;;;;;;4959747;28;25130;-64
2024/01/21 04:37:40;;;;;;;10.77;6.60;;;;;;;;;;4963374;28;25058;-63
2024/01/21 04:40:07;;;;;;;9.30;5.75;;;;;;;;;;4964919;28;25101;-63
2024/01/21 04:42:33;;;;;;;10.38;6.00;;;;;;;;;;4959265;28;25052;-64
2024/01/21 04:44:59;;;;;;;11.35;5.95;;;;;;;;;;4956845;28;25076;-63
2024/01/21 04:47:25;;;;;;;11.60;6.55;;;;;;;;;;4943867;28;25059;-63
2024/01/21 04:49:51;;;;;;;10.35;6.20;;;;;;;;;;4948968;28;25075;-64
2024/01/21 04:52:17;;;;;;;9.82;5.65;;;;;;;;;;4938056;28;25112;-62
2024/01/21 04:54:43;;;;;;;11.57;6.63;;;;;;;;;;4940661;28;25070;-62
2024/01/21 04:57:08;;;;;;;9.32;5.32;;;;;;;;;;4942952;28;25137;-63
2024/01/21 04:59:34;;;;;;;8.82;5.90;;;;;;;;;;4941935;28;25161;-63
2024/01/21 05:02:00;;;;;;;14.68;6.75;;;;;;;;;;4941107;28;25120;-61
2024/01/21 05:04:26;;;;;;;9.35;6.22;;;;;;;;;;4945959;28;25071;-63
2024/01/21 05:06:52;;;;;;;10.95;6.22;;;;;;;;;;4940075;28;25139;-63
2024/01/21 05:09:18;;;;;;;13.20;6.25;;;;;;;;;;4948275;28;25139;-63
2024/01/21 05:11:44;;;;;;;8.23;5.63;;;;;;;;;;4953637;28;25142;-63
2024/01/21 05:14:10;;;;;;;9.68;6.15;;;;;;;;;;4951804;28;25152;-63
2024/01/21 05:16:39;;;;;;;8.95;5.72;;;;;;;;;;4953104;28;25121;-63
2024/01/21 05:19:05;;;;;;;10.77;6.30;;;;;;;;;;4946899;28;25102;-62
2024/01/21 05:21:31;;;;;;;11.02;6.45;;;;;;;;;;4954408;28;25114;-62
2024/01/21 05:23:57;;;;;;;14.25;6.80;;;;;;;;;;4942011;28;25077;-62
2024/01/21 05:26:23;;;;;;;11.98;6.35;;;;;;;;;;4956828;28;25122;-63
2024/01/21 05:28:49;;;;;;;10.68;6.55;;;;;;;;;;4937714;28;25018;-63
2024/01/21 05:31:15;;;;;;;14.07;6.70;;;;;;;;;;4950462;28;25100;-63
2024/01/21 05:33:41;;;;;;;11.48;6.60;;;;;;;;;;4940104;28;25100;-63
2024/01/21 05:36:09;;;;;;;11.48;6.43;;;;;;;;;;4950917;28;25067;-62
2024/01/21 05:38:35;;;;;;;12.05;7.05;;;;;;;;;;4957050;28;25057;-62
2024/01/21 05:41:01;;;;;;;11.85;6.95;;;;;;;;;;4944779;28;25074;-63
2024/01/21 05:43:27;;;;;;;9.00;5.63;;;;;;;;;;4945412;28;25043;-63
2024/01/21 05:45:53;;;;;;;13.45;6.65;;;;;;;;;;4937449;28;25148;-63
2024/01/21 05:48:19;;;;;;;9.13;6.05;;;;;;;;;;4956764;28;25145;-63
2024/01/21 05:50:44;;;;;;;10.23;6.25;;;;;;;;;;4943491;28;25055;-63
2024/01/21 05:53:10;;;;;;;9.15;6.43;;;;;;;;;;4946419;28;25076;-63
2024/01/21 05:55:37;;;;;;;10.38;6.97;;;;;;;;;;4953154;28;25093;-63
2024/01/21 05:58:03;;;;;;;15.85;6.15;;;;;;;;;;4947975;28;25078;-64
2024/01/21 06:00:29;;;;;;;9.23;5.88;;;;;;;;;;4954875;28;25100;-62
2024/01/21 06:02:55;;;;;;;11.70;6.65;;;;;;;;;;4951040;28;25093;-63
2024/01/21 06:05:20;;;;;;;10.35;6.60;;;;;;;;;;4945297;28;25051;-63
2024/01/21 06:07:46;;;;;;;12.25;7.13;;;;;;;;;;4944442;28;25152;-63
2024/01/21 06:10:12;;;;;;;11.27;6.78;;;;;;;;;;4951832;28;25011;-63
2024/01/21 06:12:38;;;;;;;10.88;6.45;;;;;;;;;;4948868;28;25107;-62
2024/01/21 06:15:04;;;;;;;12.00;6.88;;;;;;;;;;4942508;28;25065;-64
2024/01/21 06:17:30;;;;;;;8.90;6.38;;;;;;;;;;4948788;28;25055;-62
2024/01/21 06:19:57;;;;;;;11.05;6.93;;;;;;;;;;4945012;28;25127;-64
2024/01/21 06:22:23;;;;;;;10.77;6.88;;;;;;;;;;4945808;28;25140;-63
2024/01/21 06:24:49;;;;;;;9.63;6.32;;;;;;;;;;4943434;28;25072;-64
2024/01/21 06:27:15;;;;;;;13.68;6.65;;;;;;;;;;4956926;28;25082;-63
2024/01/21 06:29:44;;;;;;;11.93;6.38;;;;;;;;;;4953811;28;25064;-63
2024/01/21 06:32:10;;;;;;;11.55;6.40;;;;;;;;;;4938350;28;25069;-62
2024/01/21 06:34:36;;;;;;;17.20;7.20;;;;;;;;;;4943924;28;25172;-63
2024/01/21 06:37:02;;;;;;;11.43;6.18;;;;;;;;;;4952024;28;25056;-62
2024/01/21 06:39:28;;;;;;;13.32;7.03;;;;;;;;;;4956275;28;25078;-63
2024/01/21 06:44:27;;;;;;;11.65;6.65;;;;;;;;;;4985581;28;25081;-60
2024/01/21 06:46:53;;;;;;;10.55;6.05;;;;;;;;;;4984202;28;25150;-62
2024/01/21 06:49:19;;;;;;;11.70;6.45;;;;;;;;;;4993352;28;25065;-62
2024/01/21 06:51:53;;;;;;;9.60;6.40;;;;;;;;;;4966638;28;25136;-61
2024/01/21 06:54:19;;;;;;;10.30;6.45;;;;;;;;;;4962394;28;25072;-60
2024/01/21 06:56:45;;;;;;;9.95;5.95;;;;;;;;;;4963354;28;25134;-61
2024/01/21 06:59:11;;;;;;;14.07;6.63;;;;;;;;;;4979698;28;25166;-61
2024/01/21 07:01:37;;;;;;;12.00;6.65;;;;;;;;;;4970786;28;25139;-60
2024/01/21 07:04:03;;;;;;;10.40;6.53;;;;;;;;;;4948360;28;25062;-61
2024/01/21 07:06:29;;;;;;;11.23;6.70;;;;;;;;;;4964914;28;25081;-58
2024/01/21 07:08:55;;;;;;;10.80;6.10;;;;;;;;;;4973968;28;25071;-62
2024/01/21 07:11:22;;;;;;;10.98;6.75;;;;;;;;;;4969327;28;25162;-61
2024/01/21 07:13:48;;;;;;;9.77;6.40;;;;;;;;;;4967842;28;25052;-62
2024/01/21 07:16:13;;;;;;;10.10;5.95;;;;;;;;;;4975837;28;25055;-61
2024/01/21 07:18:39;;;;;;;9.75;6.15;;;;;;;;;;4975473;28;25146;-62
2024/01/21 07:21:05;;;;;;;10.05;5.90;;;;;;;;;;4977797;28;25155;-59
2024/01/21 07:23:31;;;;;;;13.15;6.28;;;;;;;;;;4970381;28;25150;-63
2024/01/21 07:25:57;;;;;;;8.95;6.45;;;;;;;;;;4971945;28;25072;-62
2024/01/21 07:28:23;;;;;;;10.05;6.82;;;;;;;;;;4970150;28;25055;-61
2024/01/21 07:30:49;;;;;;;10.63;6.72;;;;;;;;;;4966050;28;25070;-61
2024/01/21 07:33:15;;;;;;;10.82;7.30;;;;;;;;;;4964707;28;25054;-62
2024/01/21 07:35:41;;;;;;;10.98;6.40;;;;;;;;;;4979109;28;25150;-61
2024/01/21 07:38:07;;;;;;;12.63;6.55;;;;;;;;;;4982621;28;25055;-59
2024/01/21 07:40:33;;;;;;;9.88;6.55;;;;;;;;;;4975272;28;25060;-61
2024/01/21 07:42:59;;;;;;;10.23;6.97;;;;;;;;;;4967647;28;25084;-60
2024/01/21 07:45:25;;;;;;;13.75;7.45;;;;;;;;;;4971421;28;25079;-61
2024/01/21 07:47:51;;;;;;;11.38;6.80;;;;;;;;;;4963888;28;25071;-61
2024/01/21 07:50:17;;;;;;;10.75;6.65;;;;;;;;;;4971338;28;25077;-58
2024/01/21 07:52:44;;;;;;;13.60;8.00;;;;;;;;;;4969539;28;25075;-60
2024/01/21 07:55:10;;;;;;;8.80;6.03;;;;;;;;;;4973566;28;25096;-62
2024/01/21 07:57:36;;;;;;;10.55;6.82;;;;;;;;;;4970560;28;25097;-62
2024/01/21 08:00:03;;;;;;;8.63;6.18;;;;;;;;;;4974382;28;25053;-62
2024/01/21 08:02:29;;;;;;;11.25;6.75;;;;;;;;;;4968957;28;25053;-62
2024/01/21 08:04:55;;;;;;;11.82;6.72;;;;;;;;;;4971671;28;25151;-62
2024/01/21 08:07:22;;;;;;;12.48;7.30;;;;;;;;;;4971068;28;25066;-62
2024/01/21 08:09:48;;;;;;;14.10;7.45;;;;;;;;;;4968970;28;25070;-61
2024/01/21 08:12:13;;;;;;;12.10;7.03;;;;;;;;;;4970726;28;25079;-61
2024/01/21 08:14:39;;;;;;;11.02;8.07;;;;;;;;;;4972212;28;25085;-61
2024/01/21 08:17:05;;;;;;;10.43;6.95;;;;;;;;;;4981946;28;25051;-62
2024/01/21 08:19:36;;;;;;;12.02;7.40;;;;;;;;;;4978344;28;25094;-61
2024/01/21 08:22:02;;;;;;;11.20;6.65;;;;;;;;;;4981522;28;25050;-61
2024/01/21 08:24:28;;;;;;;10.48;7.18;;;;;;;;;;4973464;28;25043;-61
2024/01/21 08:26:54;;;;;;;11.05;7.55;;;;;;;;;;4960118;28;25144;-62
2024/01/21 08:29:20;;;;;;;12.45;6.80;;;;;;;;;;4955144;28;25145;-61
2024/01/21 08:31:47;;;;;;;11.48;6.97;;;;;;;;;;4964156;28;25197;-61
2024/01/21 08:34:13;;;;;;;8.98;6.72;;;;;;;;;;4968618;28;25080;-60
2024/01/21 08:36:39;;;;;;;14.23;7.07;;;;;;;;;;4966672;28;25051;-61
2024/01/21 08:39:05;;;;;;;11.35;7.43;;;;;;;;;;4971909;28;25135;-60
2024/01/21 08:41:32;;;;;;;9.52;6.75;;;;;;;;;;4972246;28;25069;-62
2024/01/21 08:43:58;;;;;;;15.82;7.15;;;;;;;;;;4966011;28;25073;-61
2024/01/21 08:46:24;;;;;;;12.82;6.90;;;;;;;;;;4971399;28;25077;-63
2024/01/21 08:48:50;;;;;;;11.25;7.10;;;;;;;;;;4971133;28;25060;-62
2024/01/21 08:51:16;;;;;;;12.27;7.75;;;;;;;;;;4965360;28;25052;-61
2024/01/21 08:53:42;;;;;;;12.82;7.07;;;;;;;;;;4976698;28;25165;-62
2024/01/21 08:56:08;;;;;;;11.73;7.18;;;;;;;;;;4977119;28;25089;-61
2024/01/21 08:58:34;;;;;;;12.68;7.70;;;;;;;;;;4964452;28;25079;-62
2024/01/21 09:01:01;;;;;;;12.68;7.70;;;;;;;;;;4968996;28;25066;-60
2024/01/21 09:03:27;;;;;;;10.55;7.40;;;;;;;;;;4966870;28;25091;-61
2024/01/21 09:05:53;;;;;;;12.23;7.72;;;;;;;;;;4964948;28;25104;-61
2024/01/21 09:08:19;;;;;;;12.27;7.55;;;;;;;;;;4968517;28;25048;-61
2024/01/21 09:10:45;;;;;;;13.13;8.27;;;;;;;;;;4961082;28;25076;-62
2024/01/21 09:13:11;;;;;;;11.52;7.45;;;;;;;;;;4970260;28;25056;-61
2024/01/21 09:15:37;;;;;;;10.23;7.68;;;;;;;;;;4971216;28;25102;-60
2024/01/21 09:18:03;;;;;;;11.75;8.15;;;;;;;;;;4969262;28;25094;-60
2024/01/21 09:20:29;;;;;;;16.70;7.65;;;;;;;;;;4969410;28;25071;-61
2024/01/21 09:22:54;;;;;;;16.35;8.73;;;;;;;;;;4970357;28;25081;-62
2024/01/21 09:25:20;;;;;;;11.75;8.07;;;;;;;;;;4962167;28;25068;-61
2024/01/21 09:27:46;;;;;;;13.25;9.05;;;;;;;;;;4973914;28;25082;-61
2024/01/21 09:30:12;;;;;;;13.70;8.57;;;;;;;;;;4966582;28;25081;-61
2024/01/21 09:32:38;;;;;;;13.02;9.05;;;;;;;;;;4964914;28;25062;-61
2024/01/21 09:35:05;;;;;;;14.55;8.40;;;;;;;;;;4963802;28;25051;-61
2024/01/21 09:37:31;;;;;;;12.55;8.15;;;;;;;;;;4972663;28;25111;-59
2024/01/21 09:39:57;;;;;;;12.88;8.00;;;;;;;;;;4973074;28;25079;-63
2024/01/21 09:42:23;;;;;;;16.60;9.18;;;;;;;;;;4968130;28;25067;-60
2024/01/21 09:44:49;;;;;;;15.43;9.15;;;;;;;;;;4970230;28;25060;-60
2024/01/21 09:47:15;;;;;;;13.50;8.90;;;;;;;;;;4964274;28;25086;-63
2024/01/21 09:49:41;;;;;;;15.52;9.15;;;;;;;;;;4971549;28;25165;-62
2024/01/21 09:52:08;;;;;;;15.70;9.52;;;;;;;;;;4970232;28;25055;-62
2024/01/21 09:54:34;;;;;;;11.73;9.13;;;;;;;;;;4961945;28;25055;-62
2024/01/21 09:57:00;;;;;;;17.00;9.48;;;;;;;;;;4952199;28;25164;-61
2024/01/21 09:59:28;;;;;;;12.32;9.13;;;;;;;;;;4955191;28;25077;-63
2024/01/21 10:01:54;;;;;;;18.30;8.82;;;;;;;;;;4969473;28;25125;-60
2024/01/21 10:04:20;;;;;;;14.82;9.18;;;;;;;;;;4969029;28;25083;-60
2024/01/21 10:06:47;;;;;;;11.85;8.70;;;;;;;;;;4964222;28;25154;-62
2024/01/21 10:09:16;;;;;;;12.52;8.57;;;;;;;;;;4971871;28;25082;-60
2024/01/21 10:11:50;;;;;;;11.38;8.25;;;;;;;;;;4968130;28;25058;-60
2024/01/21 10:14:16;;;;;;;13.30;9.35;;;;;;;;;;4967361;28;25078;-60
2024/01/21 10:16:42;;;;;;;14.40;9.32;;;;;;;;;;4965942;28;25067;-61
2024/01/21 10:19:12;;;;;;;12.27;8.60;;;;;;;;;;4975013;28;25102;-61
2024/01/21 10:21:37;;;;;;;14.93;8.48;;;;;;;;;;4978885;28;25062;-59
2024/01/21 10:24:06;;;;;;;13.77;8.73;;;;;;;;;;4968312;28;25071;-62
2024/01/21 10:26:32;;;;;;;11.07;8.48;;;;;;;;;;4965311;28;25161;-61
2024/01/21 10:28:58;;;;;;;15.30;8.98;;;;;;;;;;4974043;28;25139;-60
2024/01/21 10:31:24;;;;;;;13.60;8.75;;;;;;;;;;4962062;28;25155;-60
2024/01/21 10:33:50;;;;;;;13.70;8.77;;;;;;;;;;4964000;28;25063;-60
2024/01/21 10:36:16;;;;;;;12.73;8.63;;;;;;;;;;4963258;28;25071;-61
2024/01/21 10:38:48;;;;;;;14.02;8.90;;;;;;;;;;4966844;28;25065;-61
2024/01/21 10:41:17;;;;;;;11.68;8.40;;;;;;;;;;4964861;28;25117;-60
2024/01/21 10:43:43;;;;;;;14.35;9.38;;;;;;;;;;4962561;28;25055;-60
2024/01/21 10:46:09;;;;;;;11.50;8.27;;;;;;;;;;4966735;28;25067;-61
2024/01/21 10:48:35;;;;;;;17.42;8.52;;;;;;;;;;4963937;28;25157;-60
2024/01/21 10:51:01;;;;;;;13.23;8.77;;;;;;;;;;4976168;28;25076;-60
2024/01/21 10:53:28;;;;;;;13.30;8.75;;;;;;;;;;4968978;28;25070;-60
2024/01/21 10:55:54;;;;;;;11.13;7.68;;;;;;;;;;4972864;28;25108;-61
2024/01/21 10:58:21;;;;;;;17.90;9.00;;;;;;;;;;4965924;28;25061;-59
2024/01/21 11:00:47;;;;;;;14.57;8.43;;;;;;;;;;4946591;28;25137;-60
2024/01/21 11:03:23;;;;;;;13.63;8.60;;;;;;;;;;4960350;28;25103;-61
2024/01/21 11:05:51;;;;;;;13.68;8.23;;;;;;;;;;4970104;28;25076;-59
2024/01/21 11:08:18;;;;;;;12.27;8.73;;;;;;;;;;4968165;28;25080;-60
2024/01/21 11:10:45;;;;;;;11.10;8.07;;;;;;;;;;4962733;28;25154;-61
2024/01/21 11:13:31;;;;;;;14.07;9.85;;;;;;;;;;4942146;28;25060;-60
2024/01/21 11:15:57;;;;;;;12.43;7.95;;;;;;;;;;4944750;28;25122;-59
2024/01/21 11:18:23;;;;;;;12.13;8.10;;;;;;;;;;4963155;28;25104;-59
2024/01/21 11:20:52;;;;;;;13.38;7.88;;;;;;;;;;4956160;28;25100;-61
2024/01/21 11:23:18;;;;;;;16.38;8.65;;;;;;;;;;4953686;28;25078;-61
2024/01/21 11:25:51;;;;;;;11.95;8.32;;;;;;;;;;4969396;28;25062;-60
2024/01/21 11:28:27;;;;;;;15.95;8.82;;;;;;;;;;4961235;28;25073;-60
2024/01/21 11:30:59;;;;;;;15.00;8.05;;;;;;;;;;4966308;28;25085;-59
2024/01/21 11:33:25;;;;;;;13.82;8.57;;;;;;;;;;4963435;28;25064;-59
2024/01/21 11:35:52;;;;;;;13.07;7.78;;;;;;;;;;4965220;28;25055;-60
2024/01/21 11:38:18;;;;;;;14.05;9.00;;;;;;;;;;4964579;28;25071;-60
2024/01/21 11:40:45;;;;;;;14.52;9.20;;;;;;;;;;4962147;28;25069;-59
2024/01/21 11:43:10;;;;;;;15.85;8.73;;;;;;;;;;4966015;28;25084;-60
2024/01/21 11:45:38;;;;;;;15.77;8.40;;;;;;;;;;4964299;28;25148;-61
2024/01/21 11:48:09;;;;;;;14.05;8.70;;;;;;;;;;4967885;28;25163;-60
2024/01/21 11:50:35;;;;;;;14.13;8.90;;;;;;;;;;4968926;28;25057;-60
2024/01/21 11:53:02;;;;;;;12.95;8.50;;;;;;;;;;4965994;28;25079;-60
2024/01/21 11:55:27;;;;;;;13.93;9.43;;;;;;;;;;4964365;28;25059;-61
2024/01/21 11:57:53;;;;;;;15.77;8.75;;;;;;;;;;4975705;28;25061;-61
2024/01/21 12:00:20;;;;;;;16.13;9.38;;;;;;;;;;4969867;28;25119;-60
2024/01/21 12:02:46;;;;;;;12.18;8.48;;;;;;;;;;4971484;28;25150;-59
2024/01/21 12:05:12;;;;;;;17.75;8.52;;;;;;;;;;4965482;28;25068;-61
2024/01/21 12:07:38;;;;;;;14.38;9.27;;;;;;;;;;4946713;28;25140;-61
2024/01/21 12:10:04;;;;;;;16.85;8.75;;;;;;;;;;4971723;28;25082;-62
2024/01/21 12:12:30;;;;;;;15.32;9.65;;;;;;;;;;4970720;28;25066;-60
2024/01/21 12:14:58;;;;;;;19.17;9.32;;;;;;;;;;4970982;28;25066;-60
2024/01/21 12:17:24;;;;;;;20.40;9.43;;;;;;;;;;4968285;28;25121;-60
2024/01/21 12:19:50;;;;;;;17.13;9.40;;;;;;;;;;4970421;28;25053;-60
2024/01/21 12:22:16;;;;;;;18.10;9.45;;;;;;;;;;4968274;28;25091;-60
2024/01/21 12:24:43;;;;;;;14.85;8.93;;;;;;;;;;4967475;28;25110;-59
2024/01/21 12:27:13;;;;;;;16.27;9.30;;;;;;;;;;4970135;28;25055;-61
2024/01/21 12:29:39;;;;;;;16.45;9.10;;;;;;;;;;4970044;28;25058;-60
2024/01/21 12:32:08;;;;;;;15.88;10.05;;;;;;;;;;4978585;28;25154;-58
2024/01/21 12:34:34;;;;;;;17.63;8.95;;;;;;;;;;4977200;28;25153;-58
2024/01/21 12:37:00;;;;;;;19.85;10.43;;;;;;;;;;4966851;28;25061;-61
2024/01/21 12:39:26;;;;;;;17.20;8.70;;;;;;;;;;4968245;28;25140;-59
2024/01/21 12:41:52;;;;;;;16.35;8.63;;;;;;;;;;4964289;28;25058;-59
2024/01/21 12:44:18;;;;;;;20.20;10.10;;;;;;;;;;4964076;28;25061;-60
2024/01/21 12:46:45;;;;;;;16.95;10.20;;;;;;;;;;4965704;28;25159;-60
2024/01/21 12:49:11;;;;;;;17.33;9.93;;;;;;;;;;4967269;28;25076;-60
2024/01/21 12:51:38;;;;;;;22.10;10.90;;;;;;;;;;4966896;28;25057;-59
2024/01/21 12:54:04;;;;;;;15.25;9.70;;;;;;;;;;4965496;28;25165;-60
2024/01/21 12:56:30;;;;;;;17.48;9.32;;;;;;;;;;4959529;28;25112;-60
2024/01/21 12:58:56;;;;;;;19.73;9.98;;;;;;;;;;4956375;28;25125;-61
2024/01/21 13:01:22;;;;;;;19.55;10.20;;;;;;;;;;4983633;28;25143;-59
2024/01/21 13:03:48;;;;;;;18.73;10.40;;;;;;;;;;4962797;28;25074;-60
2024/01/21 13:06:14;;;;;;;19.67;10.00;;;;;;;;;;4967304;28;25076;-58
2024/01/21 13:08:41;;;;;;;20.13;9.75;;;;;;;;;;4970767;28;25085;-59
2024/01/21 13:11:07;;;;;;;18.88;9.35;;;;;;;;;;4971417;28;25081;-59
2024/01/21 13:13:33;;;;;;;16.90;9.77;;;;;;;;;;4965900;28;25083;-60
2024/01/21 13:16:00;;;;;;;18.73;9.73;;;;;;;;;;4947207;28;25113;-58
2024/01/21 13:18:28;;;;;;;18.75;10.50;;;;;;;;;;4962568;28;25073;-60
2024/01/21 13:20:54;;;;;;;19.70;10.30;;;;;;;;;;4952111;28;25147;-57
2024/01/21 13:23:20;;;;;;;18.35;10.43;;;;;;;;;;4959192;28;25071;-59
2024/01/21 13:25:46;;;;;;;20.13;10.95;;;;;;;;;;4967620;28;25154;-60
2024/01/21 13:28:27;;;;;;;17.42;10.55;;;;;;;;;;4967068;28;25061;-59
2024/01/21 13:30:55;;;;;;;18.05;10.18;;;;;;;;;;4973322;28;25144;-60
2024/01/21 13:33:26;;;;;;;23.85;10.57;;;;;;;;;;4964396;28;25065;-59
2024/01/21 13:35:53;;;;;;;19.10;10.27;;;;;;;;;;4976873;28;25063;-58
2024/01/21 13:38:24;;;;;;;20.52;11.63;;;;;;;;;;4969718;28;25089;-58
2024/01/21 13:40:51;;;;;;;20.77;10.30;;;;;;;;;;4966539;28;25073;-60
2024/01/21 13:43:17;;;;;;;18.85;10.40;;;;;;;;;;4942954;28;25177;-59
2024/01/21 13:45:43;;;;;;;26.48;11.18;;;;;;;;;;4967203;28;25050;-58
2024/01/21 13:48:10;;;;;;;20.85;9.52;;;;;;;;;;4968259;28;25080;-61
2024/01/21 13:50:36;;;;;;;19.52;10.05;;;;;;;;;;4967680;28;25062;-59
2024/01/21 13:53:03;;;;;;;18.38;9.88;;;;;;;;;;4965477;28;25073;-58
2024/01/21 13:55:30;;;;;;;17.02;10.10;;;;;;;;;;4963714;28;25141;-59
2024/01/21 13:57:56;;;;;;;18.17;10.07;;;;;;;;;;4942805;28;25080;-58
2024/01/21 14:00:23;;;;;;;16.60;9.10;;;;;;;;;;4961830;28;25055;-59
2024/01/21 14:02:50;;;;;;;15.98;9.50;;;;;;;;;;4954077;28;25144;-59
2024/01/21 14:05:16;;;;;;;18.20;10.23;;;;;;;;;;4953211;28;25046;-59
2024/01/21 14:07:42;;;;;;;15.18;9.65;;;;;;;;;;4967132;28;25126;-59
2024/01/21 14:10:08;;;;;;;16.52;9.43;;;;;;;;;;4967916;28;25129;-58
2024/01/21 14:12:35;;;;;;;17.38;9.60;;;;;;;;;;4964840;28;25051;-61
2024/01/21 14:15:01;;;;;;;15.25;10.48;;;;;;;;;;4966071;28;25069;-59
2024/01/21 14:17:28;;;;;;;18.73;9.15;;;;;;;;;;4967218;28;25077;-60
2024/01/21 14:19:54;;;;;;;22.23;10.15;;;;;;;;;;4979605;28;25164;-59
2024/01/21 14:22:20;;;;;;;23.60;9.95;;;;;;;;;;4962943;28;25150;-59
2024/01/21 14:24:46;;;;;;;16.02;9.18;;;;;;;;;;4961800;28;25131;-59
2024/01/21 14:27:12;;;;;;;19.05;9.82;;;;;;;;;;4964311;28;25146;-60
2024/01/21 14:29:40;;;;;;;18.33;10.32;;;;;;;;;;4958147;28;25048;-59